sensor_id;sensor_type;location;lat;lon;timestamp;pressure;altitude;pressure_sealevel;temperature;humidity
36788;BME280;22738;45.560;9.434;2023-04-27T00:02:36;99774.84;;;12.46;100.00
36788;BME280;22738;45.560;9.434;2023-04-27T00:09:20;99776.09;;;12.41;100.00
36788;BME280;22738;45.560;9.434;2023-04-27T00:16:01;99788.50;;;12.37;100.00
36788;BME280;22738;45.560;9.434;2023-04-27T00:22:43;99782.81;;;12.32;100.00
36788;BME280;22738;45.560;9.434;2023-04-27T00:29:24;99785.91;;;12.37;100.00
36788;BME280;22738;45.560;9.434;2023-04-27T00:36:06;99778.31;;;12.34;100.00
36788;BME280;22738;45.560;9.434;2023-04-27T00:42:48;99774.94;;;12.21;100.00
36788;BME280;22738;45.560;9.434;2023-04-27T00:49:29;99770.91;;;12.17;100.00
36788;BME280;22738;45.560;9.434;2023-04-27T00:56:11;99754.50;;;12.04;100.00
36788;BME280;22738;45.560;9.434;2023-04-27T01:02:54;99772.34;;;11.85;100.00
36788;BME280;22738;45.560;9.434;2023-04-27T01:09:35;99761.00;;;11.86;100.00
36788;BME280;22738;45.560;9.434;2023-04-27T01:16:17;99762.16;;;11.82;100.00
36788;BME280;22738;45.560;9.434;2023-04-27T01:22:58;99756.97;;;11.57;100.00
36788;BME280;22738;45.560;9.434;2023-04-27T01:29:39;99763.03;;;11.44;100.00
36788;BME280;22738;45.560;9.434;2023-04-27T01:36:21;99763.75;;;11.46;100.00
36788;BME280;22738;45.560;9.434;2023-04-27T01:43:03;99762.09;;;11.45;100.00
36788;BME280;22738;45.560;9.434;2023-04-27T01:49:44;99771.84;;;11.29;100.00
36788;BME280;22738;45.560;9.434;2023-04-27T01:56:25;99777.34;;;11.37;100.00
36788;BME280;22738;45.560;9.434;2023-04-27T02:03:06;99791.75;;;11.29;100.00
36788;BME280;22738;45.560;9.434;2023-04-27T02:09:47;99794.81;;;11.35;100.00
36788;BME280;22738;45.560;9.434;2023-04-27T02:16:28;99801.44;;;11.39;100.00
36788;BME280;22738;45.560;9.434;2023-04-27T02:23:09;99805.19;;;11.35;100.00
36788;BME280;22738;45.560;9.434;2023-04-27T02:29:52;99809.72;;;11.32;100.00
36788;BME280;22738;45.560;9.434;2023-04-27T02:36:33;99823.00;;;11.27;100.00
36788;BME280;22738;45.560;9.434;2023-04-27T02:43:15;99823.31;;;11.10;100.00
36788;BME280;22738;45.560;9.434;2023-04-27T02:49:56;99823.91;;;11.01;100.00
36788;BME280;22738;45.560;9.434;2023-04-27T02:56:37;99834.59;;;10.97;100.00
36788;BME280;22738;45.560;9.434;2023-04-27T03:03:18;99836.38;;;10.69;100.00
36788;BME280;22738;45.560;9.434;2023-04-27T03:09:59;99827.94;;;10.66;100.00
36788;BME280;22738;45.560;9.434;2023-04-27T03:16:40;99831.72;;;10.48;100.00
36788;BME280;22738;45.560;9.434;2023-04-27T03:23:21;99842.47;;;10.42;100.00
36788;BME280;22738;45.560;9.434;2023-04-27T03:30:02;99830.56;;;10.25;100.00
36788;BME280;22738;45.560;9.434;2023-04-27T03:36:44;99832.06;;;10.01;100.00
36788;BME280;22738;45.560;9.434;2023-04-27T03:43:25;99832.81;;;9.75;100.00
36788;BME280;22738;45.560;9.434;2023-04-27T03:50:07;99838.81;;;9.75;100.00
36788;BME280;22738;45.560;9.434;2023-04-27T03:56:48;99859.91;;;9.69;100.00
36788;BME280;22738;45.560;9.434;2023-04-27T04:03:29;99862.84;;;9.77;100.00
36788;BME280;22738;45.560;9.434;2023-04-27T04:10:11;99869.44;;;9.83;100.00
36788;BME280;22738;45.560;9.434;2023-04-27T04:16:52;99871.28;;;9.81;100.00
36788;BME280;22738;45.560;9.434;2023-04-27T04:23:35;99876.72;;;9.90;100.00
36788;BME280;22738;45.560;9.434;2023-04-27T04:30:17;99886.50;;;9.99;100.00
36788;BME280;22738;45.560;9.434;2023-04-27T04:36:59;99894.13;;;10.17;100.00
36788;BME280;22738;45.560;9.434;2023-04-27T04:43:40;99908.25;;;10.53;100.00
36788;BME280;22738;45.560;9.434;2023-04-27T04:50:22;99910.78;;;12.23;100.00
36788;BME280;22738;45.560;9.434;2023-04-27T04:57:04;99922.66;;;11.77;100.00
36788;BME280;22738;45.560;9.434;2023-04-27T05:03:45;99933.03;;;11.77;100.00
36788;BME280;22738;45.560;9.434;2023-04-27T05:10:26;99936.25;;;11.68;100.00
36788;BME280;22738;45.560;9.434;2023-04-27T05:17:07;99944.25;;;11.77;100.00
36788;BME280;22738;45.560;9.434;2023-04-27T05:23:49;99950.00;;;12.07;100.00
36788;BME280;22738;45.560;9.434;2023-04-27T05:30:30;99962.16;;;12.07;100.00
36788;BME280;22738;45.560;9.434;2023-04-27T05:37:12;99960.56;;;12.42;100.00
36788;BME280;22738;45.560;9.434;2023-04-27T05:43:53;99965.56;;;12.81;100.00
36788;BME280;22738;45.560;9.434;2023-04-27T05:50:34;99975.59;;;13.11;100.00
36788;BME280;22738;45.560;9.434;2023-04-27T05:57:15;99971.88;;;13.50;100.00
36788;BME280;22738;45.560;9.434;2023-04-27T06:03:56;99991.22;;;15.04;100.00
36788;BME280;22738;45.560;9.434;2023-04-27T06:10:41;100004.22;;;22.44;54.80
36788;BME280;22738;45.560;9.434;2023-04-27T06:17:22;100015.31;;;25.18;46.03
36788;BME280;22738;45.560;9.434;2023-04-27T06:24:05;100026.63;;;26.67;41.54
36788;BME280;22738;45.560;9.434;2023-04-27T06:30:46;100041.41;;;27.64;39.49
36788;BME280;22738;45.560;9.434;2023-04-27T06:37:28;100037.53;;;27.13;38.52
36788;BME280;22738;45.560;9.434;2023-04-27T06:44:09;100039.34;;;27.60;37.46
36788;BME280;22738;45.560;9.434;2023-04-27T06:50:51;100037.22;;;27.42;36.74
36788;BME280;22738;45.560;9.434;2023-04-27T06:57:32;100045.97;;;29.06;35.39
36788;BME280;22738;45.560;9.434;2023-04-27T07:04:13;100057.03;;;28.46;35.51
36788;BME280;22738;45.560;9.434;2023-04-27T07:10:54;100062.34;;;30.23;34.77
36788;BME280;22738;45.560;9.434;2023-04-27T07:17:35;100067.00;;;29.40;35.34
36788;BME280;22738;45.560;9.434;2023-04-27T07:24:16;100055.22;;;29.54;33.52
36788;BME280;22738;45.560;9.434;2023-04-27T07:30:57;100055.16;;;28.40;34.38
36788;BME280;22738;45.560;9.434;2023-04-27T07:37:39;100063.72;;;27.70;35.93
36788;BME280;22738;45.560;9.434;2023-04-27T07:44:20;100058.66;;;28.34;35.04
36788;BME280;22738;45.560;9.434;2023-04-27T07:51:01;100062.47;;;27.46;37.10
36788;BME280;22738;45.560;9.434;2023-04-27T07:57:42;100058.91;;;25.60;37.62
36788;BME280;22738;45.560;9.434;2023-04-27T08:04:23;100053.47;;;23.39;42.38
36788;BME280;22738;45.560;9.434;2023-04-27T08:11:08;100061.75;;;23.89;40.85
36788;BME280;22738;45.560;9.434;2023-04-27T08:17:49;100063.47;;;23.52;41.60
36788;BME280;22738;45.560;9.434;2023-04-27T08:24:30;100069.16;;;23.02;41.85
36788;BME280;22738;45.560;9.434;2023-04-27T08:31:11;100067.69;;;22.99;42.96
36788;BME280;22738;45.560;9.434;2023-04-27T08:37:52;100066.88;;;22.99;43.85
36788;BME280;22738;45.560;9.434;2023-04-27T08:44:37;100050.38;;;22.89;42.50
36788;BME280;22738;45.560;9.434;2023-04-27T08:51:20;100055.94;;;23.02;44.26
36788;BME280;22738;45.560;9.434;2023-04-27T08:58:01;100048.56;;;22.10;44.89
36788;BME280;22738;45.560;9.434;2023-04-27T09:04:44;100043.72;;;22.62;43.85
36788;BME280;22738;45.560;9.434;2023-04-27T09:11:38;100051.03;;;22.91;42.84
36788;BME280;22738;45.560;9.434;2023-04-27T09:18:20;100051.06;;;22.83;43.42
36788;BME280;22738;45.560;9.434;2023-04-27T09:25:03;100041.91;;;21.66;47.11
36788;BME280;22738;45.560;9.434;2023-04-27T09:31:44;100047.09;;;22.87;44.60
36788;BME280;22738;45.560;9.434;2023-04-27T09:38:26;100047.69;;;22.97;43.88
36788;BME280;22738;45.560;9.434;2023-04-27T09:45:08;100053.34;;;22.94;45.24
36788;BME280;22738;45.560;9.434;2023-04-27T09:51:49;100044.75;;;22.92;45.29
36788;BME280;22738;45.560;9.434;2023-04-27T09:59:12;100043.72;;;23.01;44.10
36788;BME280;22738;45.560;9.434;2023-04-27T10:13:25;100033.50;;;22.27;45.77
36788;BME280;22738;45.560;9.434;2023-04-27T10:20:07;100026.19;;;23.08;49.27
36788;BME280;22738;45.560;9.434;2023-04-27T10:26:50;100027.03;;;22.61;50.61
36788;BME280;22738;45.560;9.434;2023-04-27T10:33:41;100023.03;;;22.57;50.79
36788;BME280;22738;45.560;9.434;2023-04-27T10:40:32;100021.09;;;23.29;48.20
36788;BME280;22738;45.560;9.434;2023-04-27T10:47:15;100008.50;;;23.31;54.74
36788;BME280;22738;45.560;9.434;2023-04-27T10:53:57;100006.19;;;22.66;52.74
36788;BME280;22738;45.560;9.434;2023-04-27T11:00:40;100007.47;;;23.40;48.60
36788;BME280;22738;45.560;9.434;2023-04-27T11:07:25;100017.66;;;23.51;49.41
36788;BME280;22738;45.560;9.434;2023-04-27T11:14:07;100001.97;;;23.72;48.52
36788;BME280;22738;45.560;9.434;2023-04-27T11:20:50;100007.78;;;23.14;51.20
36788;BME280;22738;45.560;9.434;2023-04-27T11:27:35;100005.94;;;23.15;52.03
36788;BME280;22738;45.560;9.434;2023-04-27T11:34:19;99998.38;;;23.12;55.01
36788;BME280;22738;45.560;9.434;2023-04-27T11:41:02;100001.81;;;23.88;49.01
36788;BME280;22738;45.560;9.434;2023-04-27T11:47:45;99998.97;;;23.75;50.19
36788;BME280;22738;45.560;9.434;2023-04-27T11:54:28;99983.88;;;23.98;46.84
36788;BME280;22738;45.560;9.434;2023-04-27T12:01:09;99985.09;;;23.20;49.84
36788;BME280;22738;45.560;9.434;2023-04-27T12:07:52;99984.47;;;22.32;50.23
36788;BME280;22738;45.560;9.434;2023-04-27T12:14:33;99986.66;;;22.76;49.64
36788;BME280;22738;45.560;9.434;2023-04-27T12:21:14;99965.72;;;21.95;52.73
36788;BME280;22738;45.560;9.434;2023-04-27T12:27:56;99964.94;;;23.19;54.10
36788;BME280;22738;45.560;9.434;2023-04-27T12:34:37;99964.75;;;23.88;48.63
36788;BME280;22738;45.560;9.434;2023-04-27T12:41:19;99951.09;;;23.62;49.82
36788;BME280;22738;45.560;9.434;2023-04-27T12:48:00;99937.44;;;22.75;51.53
36788;BME280;22738;45.560;9.434;2023-04-27T12:54:41;99933.16;;;22.19;51.72
36788;BME280;22738;45.560;9.434;2023-04-27T13:01:23;99931.72;;;21.68;54.42
36788;BME280;22738;45.560;9.434;2023-04-27T13:08:05;99934.84;;;22.12;55.08
36788;BME280;22738;45.560;9.434;2023-04-27T13:14:46;99926.63;;;21.74;52.74
36788;BME280;22738;45.560;9.434;2023-04-27T13:21:27;99937.34;;;21.97;52.08
36788;BME280;22738;45.560;9.434;2023-04-27T13:28:09;99920.00;;;22.02;53.27
36788;BME280;22738;45.560;9.434;2023-04-27T13:34:50;99931.31;;;22.27;52.09
36788;BME280;22738;45.560;9.434;2023-04-27T13:41:32;99924.84;;;22.77;48.08
36788;BME280;22738;45.560;9.434;2023-04-27T13:48:13;99920.09;;;22.25;50.48
36788;BME280;22738;45.560;9.434;2023-04-27T13:54:54;99911.50;;;22.70;50.14
36788;BME280;22738;45.560;9.434;2023-04-27T14:01:35;99901.81;;;22.62;49.88
36788;BME280;22738;45.560;9.434;2023-04-27T14:08:18;99887.19;;;23.05;49.19
36788;BME280;22738;45.560;9.434;2023-04-27T14:14:59;99869.41;;;23.59;45.13
36788;BME280;22738;45.560;9.434;2023-04-27T14:21:40;99875.66;;;23.21;46.72
36788;BME280;22738;45.560;9.434;2023-04-27T14:28:21;99870.81;;;23.24;46.91
36788;BME280;22738;45.560;9.434;2023-04-27T14:35:02;99868.25;;;23.39;46.35
36788;BME280;22738;45.560;9.434;2023-04-27T14:41:43;99877.56;;;23.35;42.36
36788;BME280;22738;45.560;9.434;2023-04-27T14:48:24;99884.69;;;23.49;43.58
36788;BME280;22738;45.560;9.434;2023-04-27T14:55:06;99881.34;;;23.55;46.54
36788;BME280;22738;45.560;9.434;2023-04-27T15:01:47;99870.78;;;23.55;46.29
36788;BME280;22738;45.560;9.434;2023-04-27T15:08:28;99872.44;;;23.71;45.85
36788;BME280;22738;45.560;9.434;2023-04-27T15:15:10;99880.34;;;23.56;44.78
36788;BME280;22738;45.560;9.434;2023-04-27T15:21:52;99886.88;;;23.46;45.51
36788;BME280;22738;45.560;9.434;2023-04-27T15:28:33;99877.06;;;23.31;44.22
36788;BME280;22738;45.560;9.434;2023-04-27T15:35:14;99870.19;;;23.00;45.66
36788;BME280;22738;45.560;9.434;2023-04-27T15:41:56;99870.84;;;23.02;46.21
36788;BME280;22738;45.560;9.434;2023-04-27T15:48:39;99878.34;;;22.59;47.43
36788;BME280;22738;45.560;9.434;2023-04-27T15:55:20;99876.94;;;22.80;45.16
36788;BME280;22738;45.560;9.434;2023-04-27T16:02:02;99865.19;;;22.82;44.97
36788;BME280;22738;45.560;9.434;2023-04-27T16:08:43;99883.00;;;22.57;46.94
36788;BME280;22738;45.560;9.434;2023-04-27T16:15:24;99874.50;;;22.39;47.74
36788;BME280;22738;45.560;9.434;2023-04-27T16:22:05;99889.03;;;22.74;45.76
36788;BME280;22738;45.560;9.434;2023-04-27T16:28:46;99883.19;;;22.09;48.75
36788;BME280;22738;45.560;9.434;2023-04-27T16:35:27;99883.97;;;22.26;45.80
36788;BME280;22738;45.560;9.434;2023-04-27T16:42:09;99894.47;;;21.87;46.26
36788;BME280;22738;45.560;9.434;2023-04-27T16:48:52;99887.72;;;21.68;48.14
36788;BME280;22738;45.560;9.434;2023-04-27T16:55:36;99880.94;;;21.66;49.60
36788;BME280;22738;45.560;9.434;2023-04-27T17:02:19;99889.81;;;21.97;48.53
36788;BME280;22738;45.560;9.434;2023-04-27T17:09:00;99884.25;;;21.84;49.53
36788;BME280;22738;45.560;9.434;2023-04-27T17:15:41;99884.56;;;21.65;49.00
36788;BME280;22738;45.560;9.434;2023-04-27T17:22:22;99884.25;;;21.52;50.65
36788;BME280;22738;45.560;9.434;2023-04-27T17:29:03;99895.81;;;21.43;50.71
36788;BME280;22738;45.560;9.434;2023-04-27T17:35:45;99893.50;;;21.31;51.16
36788;BME280;22738;45.560;9.434;2023-04-27T17:42:28;99894.50;;;21.14;52.70
36788;BME280;22738;45.560;9.434;2023-04-27T17:49:09;99879.94;;;20.94;52.28
36788;BME280;22738;45.560;9.434;2023-04-27T17:55:50;99880.22;;;20.75;52.57
36788;BME280;22738;45.560;9.434;2023-04-27T18:02:32;99887.06;;;20.44;54.63
36788;BME280;22738;45.560;9.434;2023-04-27T18:09:13;99893.41;;;20.25;57.88
36788;BME280;22738;45.560;9.434;2023-04-27T18:15:54;99900.84;;;19.78;76.52
36788;BME280;22738;45.560;9.434;2023-04-27T18:22:37;99904.69;;;19.31;87.28
36788;BME280;22738;45.560;9.434;2023-04-27T18:29:19;99927.69;;;18.94;97.55
36788;BME280;22738;45.560;9.434;2023-04-27T18:36:03;99928.28;;;18.61;96.01
36788;BME280;22738;45.560;9.434;2023-04-27T18:42:45;99932.50;;;18.44;100.00
36788;BME280;22738;45.560;9.434;2023-04-27T18:49:26;99950.34;;;18.31;100.00
36788;BME280;22738;45.560;9.434;2023-04-27T18:56:07;99965.13;;;18.41;100.00
36788;BME280;22738;45.560;9.434;2023-04-27T19:02:49;99970.75;;;18.00;100.00
36788;BME280;22738;45.560;9.434;2023-04-27T19:09:31;99984.88;;;17.61;100.00
36788;BME280;22738;45.560;9.434;2023-04-27T19:16:13;99986.38;;;17.35;100.00
36788;BME280;22738;45.560;9.434;2023-04-27T19:22:55;99988.97;;;17.16;100.00
36788;BME280;22738;45.560;9.434;2023-04-27T19:29:50;99997.19;;;17.01;100.00
36788;BME280;22738;45.560;9.434;2023-04-27T19:36:31;100006.03;;;17.00;100.00
36788;BME280;22738;45.560;9.434;2023-04-27T19:43:13;100018.66;;;16.86;100.00
36788;BME280;22738;45.560;9.434;2023-04-27T19:49:54;100018.91;;;16.73;100.00
36788;BME280;22738;45.560;9.434;2023-04-27T19:56:38;100020.94;;;16.60;100.00
36788;BME280;22738;45.560;9.434;2023-04-27T20:03:19;100025.06;;;16.42;100.00
36788;BME280;22738;45.560;9.434;2023-04-27T20:10:00;100032.75;;;16.13;100.00
36788;BME280;22738;45.560;9.434;2023-04-27T20:16:42;100043.50;;;15.99;100.00
36788;BME280;22738;45.560;9.434;2023-04-27T20:23:23;100049.03;;;15.64;100.00
36788;BME280;22738;45.560;9.434;2023-04-27T20:30:05;100062.13;;;15.53;100.00
36788;BME280;22738;45.560;9.434;2023-04-27T20:36:46;100059.50;;;15.42;100.00
36788;BME280;22738;45.560;9.434;2023-04-27T20:43:27;100053.59;;;15.29;100.00
36788;BME280;22738;45.560;9.434;2023-04-27T20:50:09;100056.03;;;15.10;100.00
36788;BME280;22738;45.560;9.434;2023-04-27T20:56:50;100060.28;;;15.00;100.00
36788;BME280;22738;45.560;9.434;2023-04-27T21:03:33;100068.34;;;15.19;100.00
36788;BME280;22738;45.560;9.434;2023-04-27T21:10:15;100069.50;;;15.48;100.00
36788;BME280;22738;45.560;9.434;2023-04-27T21:16:56;100070.72;;;15.44;100.00
36788;BME280;22738;45.560;9.434;2023-04-27T21:23:37;100069.94;;;15.42;100.00
36788;BME280;22738;45.560;9.434;2023-04-27T21:30:18;100082.56;;;15.37;100.00
36788;BME280;22738;45.560;9.434;2023-04-27T21:36:59;100089.34;;;15.40;100.00
36788;BME280;22738;45.560;9.434;2023-04-27T21:43:40;100094.44;;;15.30;100.00
36788;BME280;22738;45.560;9.434;2023-04-27T21:50:21;100086.34;;;15.33;100.00
36788;BME280;22738;45.560;9.434;2023-04-27T21:57:03;100092.41;;;15.34;100.00
36788;BME280;22738;45.560;9.434;2023-04-27T22:03:44;100106.66;;;15.30;100.00
36788;BME280;22738;45.560;9.434;2023-04-27T22:10:26;100114.38;;;15.20;100.00
36788;BME280;22738;45.560;9.434;2023-04-27T22:17:07;100116.06;;;15.21;100.00
36788;BME280;22738;45.560;9.434;2023-04-27T22:23:48;100114.63;;;15.06;100.00
36788;BME280;22738;45.560;9.434;2023-04-27T22:30:29;100113.69;;;15.07;100.00
36788;BME280;22738;45.560;9.434;2023-04-27T22:37:11;100122.47;;;14.95;100.00
36788;BME280;22738;45.560;9.434;2023-04-27T22:43:52;100131.84;;;14.97;100.00
36788;BME280;22738;45.560;9.434;2023-04-27T22:50:34;100143.81;;;14.89;100.00
36788;BME280;22738;45.560;9.434;2023-04-27T22:57:15;100143.09;;;14.76;100.00
36788;BME280;22738;45.560;9.434;2023-04-27T23:03:56;100144.75;;;14.77;100.00
36788;BME280;22738;45.560;9.434;2023-04-27T23:10:37;100143.91;;;14.65;100.00
36788;BME280;22738;45.560;9.434;2023-04-27T23:17:18;100151.50;;;14.68;100.00
36788;BME280;22738;45.560;9.434;2023-04-27T23:24:02;100139.16;;;14.70;100.00
36788;BME280;22738;45.560;9.434;2023-04-27T23:30:51;100129.78;;;14.68;100.00
36788;BME280;22738;45.560;9.434;2023-04-27T23:37:32;100120.41;;;14.65;100.00
36788;BME280;22738;45.560;9.434;2023-04-27T23:44:16;100132.53;;;14.66;100.00
36788;BME280;22738;45.560;9.434;2023-04-27T23:51:01;100136.41;;;14.61;100.00
36788;BME280;22738;45.560;9.434;2023-04-27T23:57:43;100134.28;;;14.55;100.00
